Time;durP1;ratioP1;P1;durP2;ratioP2;P2;SDS_P1;SDS_P2;PMS_P1;PMS_P2;Temp;Humidity;BMP_temperature;BMP_pressure;BME280_temperature;BME280_humidity;BME280_pressure;Samples;Min_cycle;Max_cycle;Signal;HPM_P1;HPM_P2
2022/11/21 00:00:53;;;;;;;96.40;45.57;;;0.20;99.90;;;;;;5049918;28;21021;-73
2022/11/21 00:03:44;;;;;;;105.10;46.63;;;0.20;99.90;;;;;;5066161;28;20228;-73
2022/11/21 00:06:32;;;;;;;99.73;46.03;;;0.10;99.90;;;;;;5065307;28;20224;-72
2022/11/21 00:09:21;;;;;;;100.63;46.00;;;0.10;99.90;;;;;;5050030;28;20232;-73
2022/11/21 00:12:09;;;;;;;100.43;46.03;;;0.10;99.90;;;;;;5050107;28;20228;-73
2022/11/21 00:14:58;;;;;;;97.37;45.37;;;0.10;99.90;;;;;;5046367;28;20223;-72
2022/11/21 00:17:47;;;;;;;108.03;47.70;;;0.10;99.90;;;;;;5051239;28;20235;-72
2022/11/21 00:20:37;;;;;;;103.97;46.70;;;0.10;99.90;;;;;;5064825;28;20227;-74
2022/11/21 00:23:27;;;;;;;98.97;46.10;;;0.20;99.90;;;;;;5075384;28;20534;-73
2022/11/21 00:26:17;;;;;;;99.40;47.03;;;0.20;99.90;;;;;;5051086;28;20227;-72
2022/11/21 00:29:05;;;;;;;102.17;46.33;;;0.20;99.90;;;;;;5064534;28;20266;-73
2022/11/21 00:31:54;;;;;;;99.77;46.47;;;0.20;99.90;;;;;;5077512;28;20227;-72
2022/11/21 00:34:43;;;;;;;101.37;47.87;;;0.20;99.90;;;;;;5048900;28;20228;-72
2022/11/21 00:37:33;;;;;;;102.13;49.27;;;0.20;99.90;;;;;;5049070;28;20232;-73
2022/11/21 00:40:22;;;;;;;106.47;48.20;;;0.20;99.90;;;;;;5049361;28;20230;-73
2022/11/21 00:43:11;;;;;;;107.67;48.70;;;0.20;99.90;;;;;;5064527;28;20276;-73
2022/11/21 00:46:01;;;;;;;103.80;47.83;;;0.20;99.90;;;;;;5066298;28;20235;-73
2022/11/21 00:48:51;;;;;;;102.17;47.73;;;0.30;99.90;;;;;;5064617;28;20215;-73
2022/11/21 00:51:39;;;;;;;103.53;47.63;;;0.20;99.90;;;;;;5049681;28;20348;-73
2022/11/21 00:54:29;;;;;;;104.77;47.73;;;0.20;99.90;;;;;;5066408;28;20299;-72
2022/11/21 00:57:18;;;;;;;105.43;47.43;;;0.10;99.90;;;;;;5049319;28;20227;-72
2022/11/21 01:00:08;;;;;;;103.63;47.93;;;0.10;99.90;;;;;;5046314;28;20749;-72
2022/11/21 01:02:56;;;;;;;109.83;49.23;;;0.20;99.90;;;;;;5047423;28;20227;-72
2022/11/21 01:05:45;;;;;;;105.47;46.90;;;0.30;99.90;;;;;;5050212;28;20227;-72
2022/11/21 01:08:35;;;;;;;108.07;49.97;;;0.60;99.90;;;;;;5054961;28;20336;-72
2022/11/21 01:11:25;;;;;;;100.73;47.70;;;0.50;99.90;;;;;;5046952;28;20221;-71
2022/11/21 01:14:14;;;;;;;108.70;48.90;;;0.50;99.90;;;;;;5064326;28;20247;-71
2022/11/21 01:17:02;;;;;;;107.37;49.10;;;0.40;99.90;;;;;;5048723;28;20230;-71
2022/11/21 01:19:51;;;;;;;110.60;50.50;;;0.30;99.90;;;;;;5066711;28;20219;-70
2022/11/21 01:22:39;;;;;;;108.03;49.13;;;0.40;99.90;;;;;;5048093;28;21053;-72
2022/11/21 01:25:28;;;;;;;107.70;48.23;;;0.40;99.90;;;;;;5062285;28;21239;-71
2022/11/21 01:28:18;;;;;;;109.43;50.33;;;0.40;99.90;;;;;;5047462;28;20799;-70
2022/11/21 01:31:07;;;;;;;111.40;50.10;;;0.30;99.90;;;;;;5046012;28;20329;-71
2022/11/21 01:33:57;;;;;;;110.73;49.37;;;0.30;99.90;;;;;;5066950;28;20738;-71
2022/11/21 01:36:46;;;;;;;101.20;48.70;;;0.20;99.90;;;;;;5048847;28;20713;-72
2022/11/21 01:39:35;;;;;;;103.67;48.83;;;0.20;99.90;;;;;;5050962;28;20280;-72
2022/11/21 01:42:23;;;;;;;108.57;49.03;;;0.10;99.90;;;;;;5047562;28;20385;-72
2022/11/21 01:45:45;;;;;;;107.80;48.90;;;0.20;99.90;;;;;;5064141;28;20219;-72
2022/11/21 01:48:44;;;;;;;111.10;49.37;;;0.10;99.90;;;;;;5063952;28;20226;-71
2022/11/21 01:51:36;;;;;;;104.97;47.63;;;0.00;99.90;;;;;;5052123;28;21546;-71
2022/11/21 01:54:29;;;;;;;106.17;49.47;;;0.10;99.90;;;;;;5050501;28;20243;-71
2022/11/21 01:57:21;;;;;;;109.23;49.63;;;0.00;99.90;;;;;;5066521;28;20231;-71
2022/11/21 02:00:13;;;;;;;106.07;48.80;;;-0.10;99.90;;;;;;5066177;28;20228;-72
2022/11/21 02:03:06;;;;;;;111.47;49.53;;;0.10;99.90;;;;;;5064954;28;20691;-72
2022/11/21 02:05:57;;;;;;;102.90;49.23;;;0.10;99.90;;;;;;5063211;28;20967;-71
2022/11/21 02:08:46;;;;;;;109.40;48.90;;;0.10;99.90;;;;;;5062236;28;20245;-72
2022/11/21 02:11:38;;;;;;;110.77;48.23;;;0.20;99.90;;;;;;5063446;28;20224;-72
2022/11/21 02:14:28;;;;;;;103.50;48.67;;;0.30;99.90;;;;;;5052167;28;20234;-72
2022/11/21 02:17:18;;;;;;;108.43;49.37;;;0.20;99.90;;;;;;5066201;28;20219;-71
2022/11/21 02:20:09;;;;;;;106.60;48.83;;;0.10;99.90;;;;;;5048897;28;20602;-71
2022/11/21 02:23:05;;;;;;;116.00;49.00;;;0.20;99.90;;;;;;5047087;28;20322;-71
2022/11/21 02:25:55;;;;;;;111.83;49.40;;;0.20;99.90;;;;;;5062742;28;20232;-71
2022/11/21 02:28:45;;;;;;;105.00;48.63;;;0.00;99.90;;;;;;5043698;28;20259;-71
2022/11/21 02:31:33;;;;;;;113.43;50.57;;;0.00;99.90;;;;;;5063273;28;20337;-71
2022/11/21 02:34:21;;;;;;;108.20;49.23;;;0.00;99.90;;;;;;5051822;28;20796;-71
2022/11/21 02:37:10;;;;;;;108.27;49.83;;;0.10;99.90;;;;;;5048762;28;20258;-72
2022/11/21 02:40:03;;;;;;;108.40;49.33;;;0.00;99.90;;;;;;5050278;28;20224;-72
2022/11/21 02:42:59;;;;;;;102.77;47.93;;;0.10;99.90;;;;;;5050536;28;20280;-70
2022/11/21 02:45:48;;;;;;;111.53;48.97;;;-0.10;99.90;;;;;;5066700;28;20223;-72
2022/11/21 02:48:37;;;;;;;109.77;49.43;;;0.00;99.90;;;;;;5051297;28;20220;-72
2022/11/21 02:51:25;;;;;;;110.73;48.70;;;-0.10;99.90;;;;;;5066128;28;20273;-71
2022/11/21 02:54:14;;;;;;;103.30;47.07;;;-0.10;99.90;;;;;;5065407;28;20223;-73
2022/11/21 02:57:03;;;;;;;103.20;48.50;;;0.10;99.90;;;;;;5066382;28;20315;-71
2022/11/21 02:59:54;;;;;;;114.50;48.53;;;0.10;99.90;;;;;;5067320;28;20338;-71
2022/11/21 03:02:42;;;;;;;112.70;48.97;;;0.20;99.90;;;;;;5065923;28;20950;-72
2022/11/21 03:05:31;;;;;;;106.43;48.63;;;0.00;99.90;;;;;;5066005;28;20255;-73
2022/11/21 03:08:19;;;;;;;107.27;48.20;;;-0.10;99.90;;;;;;5048799;28;20371;-73
2022/11/21 03:11:08;;;;;;;110.17;49.73;;;-0.20;99.90;;;;;;5050000;28;20227;-76
2022/11/21 03:13:56;;;;;;;111.27;48.27;;;-0.20;99.90;;;;;;5066356;28;20812;-74
2022/11/21 03:16:46;;;;;;;111.27;49.37;;;-0.20;99.90;;;;;;5075649;28;20219;-73
2022/11/21 03:19:35;;;;;;;111.17;49.97;;;-0.30;99.90;;;;;;5067032;28;20231;-72
2022/11/21 03:22:24;;;;;;;106.27;49.60;;;-0.30;99.90;;;;;;5061561;28;20224;-72
2022/11/21 03:25:12;;;;;;;108.90;49.40;;;-0.30;99.90;;;;;;5065921;28;20228;-72
2022/11/21 03:28:01;;;;;;;106.80;49.37;;;-0.30;99.90;;;;;;5051416;28;20227;-73
2022/11/21 03:30:50;;;;;;;104.87;47.80;;;-0.40;99.90;;;;;;5048597;28;20276;-72
2022/11/21 03:33:40;;;;;;;99.20;45.63;;;-0.40;99.90;;;;;;5048210;28;20230;-72
2022/11/21 03:36:28;;;;;;;110.37;50.27;;;-0.40;99.90;;;;;;5046610;28;20220;-73
2022/11/21 03:39:17;;;;;;;105.67;48.27;;;-0.40;99.90;;;;;;5065902;28;20303;-72
2022/11/21 03:42:06;;;;;;;110.60;49.27;;;-0.40;99.90;;;;;;5052343;28;20310;-73
2022/11/21 03:44:54;;;;;;;112.00;48.77;;;-0.30;99.90;;;;;;5067255;28;20228;-72
2022/11/21 03:47:46;;;;;;;112.17;48.50;;;-0.30;99.90;;;;;;5047436;28;20238;-72
2022/11/21 03:50:36;;;;;;;111.77;49.50;;;-0.30;99.90;;;;;;5064825;28;20226;-73
2022/11/21 03:53:25;;;;;;;109.23;48.67;;;-0.20;99.90;;;;;;5064694;28;20224;-73
2022/11/21 03:56:14;;;;;;;108.67;49.33;;;-0.30;99.90;;;;;;5032991;28;20735;-72
2022/11/21 03:59:03;;;;;;;110.23;49.07;;;-0.30;99.90;;;;;;5031461;28;20255;-69
2022/11/21 04:01:51;;;;;;;104.80;47.10;;;-0.20;99.90;;;;;;5034963;28;20225;-71
2022/11/21 04:04:41;;;;;;;106.47;48.37;;;-0.20;99.90;;;;;;5054462;28;20290;-71
2022/11/21 04:07:31;;;;;;;110.23;47.63;;;-0.10;99.90;;;;;;5037766;28;20677;-70
2022/11/21 04:10:20;;;;;;;106.57;47.70;;;-0.10;99.90;;;;;;5042336;28;20224;-70
2022/11/21 04:13:09;;;;;;;106.93;48.63;;;-0.20;99.90;;;;;;5034241;28;20229;-71
2022/11/21 04:15:57;;;;;;;107.00;48.40;;;-0.30;99.90;;;;;;5031127;28;20244;-71
2022/11/21 04:18:46;;;;;;;109.33;47.47;;;-0.30;99.90;;;;;;5028527;28;20216;-73
2022/11/21 04:21:34;;;;;;;109.70;46.73;;;-0.30;99.90;;;;;;5029338;28;21423;-71
2022/11/21 04:24:24;;;;;;;111.17;49.17;;;-0.30;99.90;;;;;;5056256;28;20229;-72
2022/11/21 04:27:13;;;;;;;107.67;48.00;;;-0.20;99.90;;;;;;5028867;28;20915;-69
2022/11/21 04:30:02;;;;;;;105.07;47.07;;;-0.10;99.90;;;;;;5030800;28;20943;-71
2022/11/21 04:32:51;;;;;;;107.33;47.53;;;0.00;99.90;;;;;;5036249;28;20813;-71
2022/11/21 04:35:39;;;;;;;108.73;46.80;;;-0.20;99.90;;;;;;5034466;28;20224;-72
2022/11/21 04:38:28;;;;;;;117.40;49.20;;;-0.10;99.90;;;;;;5038300;28;20228;-73
2022/11/21 04:41:18;;;;;;;99.93;45.83;;;-0.30;99.90;;;;;;5038369;28;20227;-72
2022/11/21 04:44:06;;;;;;;108.37;46.90;;;-0.20;99.90;;;;;;5029083;28;20356;-73
2022/11/21 04:46:55;;;;;;;102.73;46.97;;;-0.10;99.90;;;;;;5038195;28;20224;-72
2022/11/21 04:49:49;;;;;;;104.87;49.00;;;-0.20;99.90;;;;;;5027342;28;20235;-73
2022/11/21 04:52:38;;;;;;;107.47;48.30;;;-0.40;99.90;;;;;;5023693;28;20232;-70
2022/11/21 04:55:29;;;;;;;111.77;48.77;;;-0.50;99.90;;;;;;5023157;28;20233;-73
2022/11/21 04:58:19;;;;;;;108.07;48.10;;;-0.70;99.90;;;;;;5022015;28;20631;-73
2022/11/21 05:01:09;;;;;;;105.40;46.93;;;-0.70;99.90;;;;;;5037410;28;20225;-72
2022/11/21 05:03:57;;;;;;;102.67;49.03;;;-0.70;99.90;;;;;;5024769;28;20320;-71
2022/11/21 05:06:46;;;;;;;109.53;48.97;;;-0.70;99.90;;;;;;5024137;28;20256;-72
2022/11/21 05:09:34;;;;;;;103.40;47.47;;;-0.70;99.90;;;;;;5047805;28;20231;-73
2022/11/21 05:15:32;;;;;;;111.23;48.10;;;-0.90;99.90;;;;;;5025086;28;21095;-73
2022/11/21 05:18:20;;;;;;;110.10;49.13;;;-0.80;99.90;;;;;;5021718;28;20236;-73
2022/11/21 05:21:09;;;;;;;107.60;48.37;;;-0.70;99.90;;;;;;5020807;28;20224;-74
2022/11/21 05:23:57;;;;;;;108.80;48.80;;;-0.60;99.90;;;;;;5026133;28;21020;-73
2022/11/21 05:26:46;;;;;;;111.27;47.43;;;-0.60;99.90;;;;;;5021186;28;20233;-73
2022/11/21 05:29:34;;;;;;;112.93;49.17;;;-0.50;99.90;;;;;;5023066;28;20307;-73
2022/11/21 05:32:24;;;;;;;112.50;48.43;;;-0.80;99.90;;;;;;5025684;28;20251;-72
2022/11/21 05:35:13;;;;;;;108.00;48.23;;;-0.50;99.90;;;;;;5026174;28;20225;-73
2022/11/21 05:38:02;;;;;;;107.57;47.17;;;-0.70;99.90;;;;;;5038726;28;20225;-71
2022/11/21 05:40:52;;;;;;;111.10;48.53;;;-0.80;99.90;;;;;;5023816;28;20322;-72
2022/11/21 05:43:46;;;;;;;113.20;48.97;;;-1.00;99.90;;;;;;5035080;28;20225;-71
2022/11/21 05:46:35;;;;;;;107.13;48.57;;;-0.90;99.90;;;;;;5021775;28;20232;-73
2022/11/21 05:49:25;;;;;;;106.47;47.00;;;-0.90;99.90;;;;;;5021096;28;20248;-73
2022/11/21 05:52:14;;;;;;;100.67;46.77;;;-0.80;99.90;;;;;;5023086;28;20834;-72
2022/11/21 05:55:03;;;;;;;104.73;47.50;;;-0.70;99.90;;;;;;5044459;28;20675;-73
2022/11/21 05:57:51;;;;;;;103.40;46.73;;;-0.60;99.90;;;;;;5048771;28;20292;-74
2022/11/21 06:00:40;;;;;;;108.00;46.60;;;-0.90;99.90;;;;;;5046943;28;20258;-73
2022/11/21 06:03:31;;;;;;;108.90;47.03;;;-0.90;99.90;;;;;;5049314;28;20243;-73
2022/11/21 06:06:21;;;;;;;104.30;45.10;;;-0.90;99.90;;;;;;5048766;28;20223;-70
2022/11/21 06:09:12;;;;;;;106.73;45.37;;;-1.10;99.90;;;;;;5044949;28;20227;-70
2022/11/21 06:12:01;;;;;;;104.17;45.33;;;-0.90;99.90;;;;;;5049045;28;20385;-72
2022/11/21 06:14:49;;;;;;;96.20;45.10;;;-0.70;99.90;;;;;;5066354;28;20408;-73
2022/11/21 06:17:38;;;;;;;96.33;44.37;;;-0.90;99.90;;;;;;5064757;28;20230;-73
2022/11/21 06:20:27;;;;;;;102.60;47.73;;;-0.90;99.90;;;;;;5047669;28;20227;-73
2022/11/21 06:23:17;;;;;;;109.07;46.30;;;-0.80;99.90;;;;;;5049510;28;20227;-73
2022/11/21 06:26:08;;;;;;;113.27;48.40;;;-1.00;99.90;;;;;;5066356;28;20227;-75
2022/11/21 06:28:57;;;;;;;103.60;46.83;;;-1.00;99.90;;;;;;5067584;28;20234;-73
2022/11/21 06:31:45;;;;;;;102.93;45.87;;;-1.00;99.90;;;;;;5052309;28;20224;-72
2022/11/21 06:34:34;;;;;;;99.67;45.17;;;-1.00;99.90;;;;;;5068799;28;20418;-71
2022/11/21 06:37:22;;;;;;;98.13;46.87;;;-0.90;99.90;;;;;;5080569;28;20224;-73
2022/11/21 06:40:13;;;;;;;93.10;47.03;;;-1.20;99.90;;;;;;5049589;28;20769;-73
2022/11/21 06:43:02;;;;;;;105.33;46.17;;;-1.20;99.90;;;;;;5065015;28;20322;-73
2022/11/21 06:45:50;;;;;;;110.87;47.97;;;-1.20;99.90;;;;;;5067951;28;20299;-72
2022/11/21 06:48:39;;;;;;;102.63;45.87;;;-1.30;99.90;;;;;;5067295;28;20269;-74
2022/11/21 06:51:28;;;;;;;101.37;45.10;;;-1.10;99.90;;;;;;5065742;28;20320;-74
2022/11/21 06:54:17;;;;;;;101.10;45.97;;;-0.90;99.90;;;;;;5050458;28;20215;-76
2022/11/21 06:57:06;;;;;;;107.40;46.87;;;-0.90;99.90;;;;;;5050543;28;20232;-72
2022/11/21 06:59:55;;;;;;;107.63;44.27;;;-0.80;99.90;;;;;;5067754;28;20238;-72
2022/11/21 07:02:44;;;;;;;98.90;44.23;;;-0.80;99.90;;;;;;5047619;28;20226;-73
2022/11/21 07:05:33;;;;;;;97.23;44.00;;;-0.60;99.90;;;;;;5068693;28;20236;-70
2022/11/21 07:08:22;;;;;;;95.10;44.53;;;-0.40;99.90;;;;;;5051601;28;20242;-73
2022/11/21 07:11:12;;;;;;;93.67;42.53;;;-0.50;99.90;;;;;;5067172;28;21493;-74
2022/11/21 07:14:17;;;;;;;87.47;41.23;;;-0.50;99.90;;;;;;5067790;28;20212;-73
2022/11/21 07:17:06;;;;;;;86.03;38.83;;;-0.30;99.90;;;;;;5065767;28;20902;-74
2022/11/21 07:19:54;;;;;;;90.03;40.63;;;-0.50;99.90;;;;;;5051286;28;20242;-73
2022/11/21 07:22:43;;;;;;;85.73;39.83;;;-0.50;99.90;;;;;;5051146;28;20223;-73
2022/11/21 07:25:32;;;;;;;84.60;39.10;;;-0.40;99.90;;;;;;5047515;28;20228;-73
2022/11/21 07:28:24;;;;;;;82.43;39.67;;;-0.50;99.90;;;;;;5046772;28;20216;-73
2022/11/21 07:31:14;;;;;;;76.27;38.50;;;-0.30;99.90;;;;;;5049968;28;20227;-73
2022/11/21 07:34:02;;;;;;;82.40;38.87;;;-0.30;99.90;;;;;;5047305;28;20220;-73
2022/11/21 07:36:51;;;;;;;80.57;36.97;;;-0.30;99.90;;;;;;5048178;28;20234;-71
2022/11/21 07:39:40;;;;;;;82.17;37.63;;;-0.20;99.90;;;;;;5044177;28;20334;-71
2022/11/21 07:42:28;;;;;;;75.20;37.27;;;-0.30;99.90;;;;;;5050751;28;20224;-73
2022/11/21 07:45:17;;;;;;;77.27;36.33;;;-0.30;99.90;;;;;;5046614;28;20270;-72
2022/11/21 07:48:08;;;;;;;83.50;37.07;;;-0.30;99.90;;;;;;5064823;28;20234;-72
2022/11/21 07:50:56;;;;;;;71.83;36.60;;;-0.20;99.90;;;;;;5048689;28;20220;-72
2022/11/21 07:53:45;;;;;;;81.13;37.23;;;-0.10;99.90;;;;;;5048385;28;20845;-73
2022/11/21 07:56:33;;;;;;;87.20;41.67;;;0.00;99.90;;;;;;5049974;28;20230;-73
2022/11/21 07:59:22;;;;;;;91.80;40.57;;;-0.10;99.90;;;;;;5065329;28;20230;-73
2022/11/21 08:02:19;;;;;;;90.33;40.43;;;0.00;99.90;;;;;;5065682;28;20230;-72
2022/11/21 08:05:09;;;;;;;86.83;39.97;;;0.00;99.90;;;;;;5065112;28;21356;-73
2022/11/21 08:07:58;;;;;;;82.47;38.93;;;0.00;99.90;;;;;;5046740;28;20227;-74
2022/11/21 08:10:47;;;;;;;82.67;38.80;;;0.10;99.90;;;;;;5065260;28;20314;-73
2022/11/21 08:13:36;;;;;;;87.73;40.10;;;0.20;99.90;;;;;;5065758;28;20865;-73
2022/11/21 08:16:26;;;;;;;80.27;38.77;;;0.30;99.90;;;;;;5064619;28;20239;-73
2022/11/21 08:19:15;;;;;;;82.83;39.87;;;0.20;99.90;;;;;;5066794;28;20294;-73
2022/11/21 08:22:05;;;;;;;84.47;38.90;;;0.10;99.90;;;;;;5048283;28;20242;-73
2022/11/21 08:24:54;;;;;;;82.27;39.43;;;0.10;99.90;;;;;;5064198;28;20794;-73
2022/11/21 08:27:42;;;;;;;84.50;40.43;;;0.20;99.90;;;;;;5074466;28;20319;-74
2022/11/21 08:30:31;;;;;;;94.53;40.57;;;0.20;99.90;;;;;;5059828;28;20265;-72
2022/11/21 08:33:20;;;;;;;79.67;39.30;;;0.30;99.90;;;;;;5066673;28;20227;-73
2022/11/21 08:36:11;;;;;;;96.37;42.67;;;0.40;99.90;;;;;;5063397;28;20280;-74
2022/11/21 08:39:01;;;;;;;91.93;40.83;;;0.50;99.90;;;;;;5066435;28;21308;-73
2022/11/21 08:42:05;;;;;;;96.13;42.43;;;0.50;99.90;;;;;;5061716;28;20231;-73
2022/11/21 08:44:54;;;;;;;84.80;40.73;;;0.40;99.90;;;;;;5049730;28;20230;-72
2022/11/21 08:47:43;;;;;;;89.20;41.67;;;0.30;99.90;;;;;;5065375;28;20220;-72
2022/11/21 08:50:31;;;;;;;93.67;43.73;;;0.10;99.90;;;;;;5047131;28;20232;-70
2022/11/21 08:53:20;;;;;;;91.57;43.37;;;0.20;99.90;;;;;;5050047;28;20227;-72
2022/11/21 08:56:10;;;;;;;85.93;42.00;;;0.30;99.90;;;;;;5047662;28;20301;-71
2022/11/21 08:58:59;;;;;;;91.50;42.80;;;0.50;99.90;;;;;;5046419;28;20234;-72
2022/11/21 09:01:47;;;;;;;94.90;42.67;;;0.70;99.90;;;;;;5049943;28;20219;-72
2022/11/21 09:04:36;;;;;;;80.83;40.07;;;0.80;99.90;;;;;;5059752;28;20258;-72
2022/11/21 09:07:25;;;;;;;82.50;39.67;;;0.70;99.90;;;;;;5064932;28;20219;-71
2022/11/21 09:10:14;;;;;;;82.70;39.77;;;0.80;99.90;;;;;;5063272;28;20222;-72
2022/11/21 09:13:04;;;;;;;83.87;40.67;;;0.90;99.90;;;;;;5068047;28;20378;-71
2022/11/21 09:19:05;;;;;;;82.27;39.30;;;1.10;99.90;;;;;;5047874;28;20287;-72
2022/11/21 09:21:54;;;;;;;87.13;40.33;;;1.10;99.90;;;;;;5062480;28;20231;-72
2022/11/21 09:24:42;;;;;;;95.77;46.87;;;0.90;99.90;;;;;;5064357;28;20223;-72
2022/11/21 09:27:31;;;;;;;81.33;39.43;;;1.00;99.90;;;;;;5072700;28;20593;-75
2022/11/21 09:30:22;;;;;;;75.90;38.83;;;1.10;99.90;;;;;;5047259;28;20228;-72
2022/11/21 09:33:12;;;;;;;83.43;39.57;;;1.40;99.90;;;;;;5063157;28;21345;-72
2022/11/21 09:36:01;;;;;;;77.53;39.60;;;1.50;99.90;;;;;;5060338;28;20232;-73
2022/11/21 09:39:02;;;;;;;80.83;38.77;;;1.60;99.90;;;;;;5063073;28;20216;-72
2022/11/21 09:42:03;;;;;;;83.87;39.83;;;1.50;99.90;;;;;;5050607;28;20310;-73
2022/11/21 09:45:08;;;;;;;74.07;38.30;;;1.60;99.90;;;;;;5062744;28;20230;-73
2022/11/21 09:47:59;;;;;;;80.70;40.80;;;1.60;99.90;;;;;;5044008;28;20226;-72
2022/11/21 09:50:50;;;;;;;76.97;38.77;;;1.60;99.90;;;;;;5061506;28;20231;-73
2022/11/21 09:53:54;;;;;;;82.00;41.20;;;1.50;99.90;;;;;;5050632;28;20223;-73
2022/11/21 09:56:44;;;;;;;84.43;42.33;;;1.50;99.90;;;;;;5037357;28;20738;-69
2022/11/21 09:59:36;;;;;;;85.07;41.03;;;1.60;99.90;;;;;;5026822;28;20887;-73
2022/11/21 10:02:25;;;;;;;85.57;41.73;;;1.30;99.90;;;;;;5020358;28;20237;-72
2022/11/21 10:05:16;;;;;;;83.77;41.53;;;1.30;99.90;;;;;;5021704;28;20221;-71
2022/11/21 10:08:15;;;;;;;84.17;41.23;;;1.30;99.90;;;;;;5021754;28;20245;-73
2022/11/21 10:11:18;;;;;;;79.80;40.47;;;1.50;99.90;;;;;;5018909;28;20934;-73
2022/11/21 10:14:19;;;;;;;81.17;39.93;;;1.40;99.90;;;;;;5020058;28;20896;-76
2022/11/21 10:17:18;;;;;;;86.97;39.10;;;1.50;99.90;;;;;;5017160;28;20897;-75
2022/11/21 10:20:27;;;;;;;75.03;37.03;;;1.60;99.90;;;;;;5018642;28;20229;-73
2022/11/21 10:23:46;;;;;;;76.83;38.83;;;1.60;99.90;;;;;;5022089;28;20224;-74
2022/11/21 10:26:46;;;;;;;74.20;37.83;;;1.60;99.90;;;;;;5020301;28;20313;-74
2022/11/21 10:29:38;;;;;;;74.27;37.33;;;1.60;99.90;;;;;;5018844;28;20232;-73
2022/11/21 10:32:30;;;;;;;77.27;37.17;;;1.70;99.90;;;;;;5019253;28;20983;-73
2022/11/21 10:35:23;;;;;;;71.53;36.43;;;1.70;99.90;;;;;;5033623;28;20241;-73
2022/11/21 10:38:20;;;;;;;64.93;34.60;;;1.90;99.90;;;;;;5018480;28;20247;-73
2022/11/21 10:41:16;;;;;;;71.07;34.67;;;1.90;99.90;;;;;;5028514;28;20349;-73
2022/11/21 10:47:27;;;;;;;65.50;33.93;;;2.20;99.90;;;;;;5023417;28;20266;-74
2022/11/21 10:50:39;;;;;;;58.00;31.73;;;2.20;99.90;;;;;;5023248;28;20228;-74
2022/11/21 10:56:38;;;;;;;60.30;31.10;;;2.20;99.90;;;;;;5017675;28;20237;-74
2022/11/21 10:59:29;;;;;;;55.73;29.97;;;2.20;99.90;;;;;;5025787;28;21024;-73
2022/11/21 11:02:24;;;;;;;58.03;29.73;;;2.30;99.90;;;;;;5025648;28;20232;-72
2022/11/21 11:05:20;;;;;;;59.17;31.40;;;2.30;99.90;;;;;;5027634;28;20229;-74
2022/11/21 11:08:12;;;;;;;58.67;30.07;;;2.30;99.90;;;;;;5027462;28;20236;-73
2022/11/21 11:11:04;;;;;;;63.57;31.30;;;2.30;99.90;;;;;;5026154;28;20230;-75
2022/11/21 11:13:57;;;;;;;58.07;31.70;;;2.50;99.90;;;;;;5023101;28;20228;-74
2022/11/21 11:16:46;;;;;;;61.07;31.33;;;2.60;99.90;;;;;;5030315;28;20241;-73
2022/11/21 11:19:35;;;;;;;56.67;31.40;;;2.70;99.90;;;;;;5027027;28;20218;-73
2022/11/21 11:22:28;;;;;;;61.03;31.50;;;2.50;99.90;;;;;;5028917;28;20241;-73
2022/11/21 11:25:18;;;;;;;57.07;30.97;;;2.70;99.90;;;;;;5026381;28;20220;-73
2022/11/21 11:28:08;;;;;;;61.80;31.20;;;2.70;99.90;;;;;;5051973;28;20234;-72
2022/11/21 11:30:57;;;;;;;56.00;30.13;;;2.90;99.90;;;;;;5026008;28;20227;-72
2022/11/21 11:33:56;;;;;;;52.57;29.47;;;3.00;99.90;;;;;;5021763;28;20231;-73
2022/11/21 11:37:10;;;;;;;53.60;29.07;;;3.20;99.90;;;;;;5023008;28;20758;-74
2022/11/21 11:40:07;;;;;;;53.53;29.23;;;3.20;99.90;;;;;;5023306;28;20670;-73
2022/11/21 11:50:12;;;;;;;57.43;29.70;;;3.40;99.90;;;;;;4963460;28;20870;-73
2022/11/21 11:53:07;;;;;;;54.37;30.23;;;3.30;99.90;;;;;;5024721;28;20283;-72
2022/11/21 11:55:59;;;;;;;58.73;30.63;;;3.30;99.90;;;;;;5027325;28;20231;-71
2022/11/21 11:58:54;;;;;;;56.93;31.03;;;3.50;99.90;;;;;;5031809;28;20229;-72
2022/11/21 12:01:48;;;;;;;54.67;31.27;;;3.50;99.90;;;;;;5029297;28;20261;-74
2022/11/21 12:04:45;;;;;;;57.93;29.50;;;3.50;99.90;;;;;;5027998;28;20267;-73
2022/11/21 12:07:38;;;;;;;52.87;28.93;;;3.60;99.90;;;;;;5029146;28;21025;-72
2022/11/21 12:17:32;;;;;;;56.90;30.37;;;3.80;99.90;;;;;;5024366;28;20227;-73
2022/11/21 12:20:24;;;;;;;60.20;30.07;;;3.90;99.90;;;;;;5032475;28;20907;-73
2022/11/21 12:23:14;;;;;;;61.17;30.50;;;3.90;99.90;;;;;;5038473;28;20269;-73
2022/11/21 12:26:21;;;;;;;52.27;30.03;;;4.00;99.90;;;;;;5044021;28;21577;-73
2022/11/21 12:29:22;;;;;;;55.50;28.67;;;4.00;99.90;;;;;;5032627;28;20625;-73
2022/11/21 12:32:25;;;;;;;59.73;28.93;;;3.90;99.90;;;;;;5030038;28;20212;-72
2022/11/21 12:35:36;;;;;;;56.67;30.03;;;3.80;99.90;;;;;;5049404;28;20230;-73
2022/11/21 12:38:39;;;;;;;56.70;29.43;;;3.80;99.90;;;;;;5031652;28;20661;-73
2022/11/21 12:44:59;;;;;;;57.77;29.27;;;3.80;99.90;;;;;;5029554;28;20927;-74
2022/11/21 12:55:14;;;;;;;56.63;28.73;;;3.70;99.90;;;;;;4994010;28;20420;-73
2022/11/21 12:58:12;;;;;;;56.23;29.67;;;3.70;99.90;;;;;;5049961;28;20231;-73
2022/11/21 13:01:15;;;;;;;62.40;31.07;;;3.50;99.90;;;;;;5040377;28;20239;-74
2022/11/21 13:04:14;;;;;;;54.27;28.30;;;3.60;99.90;;;;;;5042726;28;20386;-75
2022/11/21 13:07:04;;;;;;;61.67;29.83;;;3.50;99.90;;;;;;5035769;28;20234;-74
2022/11/21 13:10:12;;;;;;;61.67;29.97;;;3.50;99.90;;;;;;5038649;28;20591;-73
2022/11/21 13:13:13;;;;;;;62.03;29.97;;;3.60;99.90;;;;;;5043689;28;20226;-73
2022/11/21 13:16:10;;;;;;;61.17;31.57;;;3.60;99.90;;;;;;5053932;28;20319;-73
2022/11/21 13:19:00;;;;;;;62.37;31.93;;;3.60;99.90;;;;;;5041839;28;20243;-73
2022/11/21 13:21:51;;;;;;;58.60;31.00;;;3.60;99.90;;;;;;5039500;28;20234;-73
2022/11/21 13:24:57;;;;;;;61.97;31.10;;;3.70;99.90;;;;;;5042579;28;20756;-72
2022/11/21 13:27:46;;;;;;;58.63;30.63;;;3.70;99.90;;;;;;5039552;28;20636;-73
2022/11/21 13:30:35;;;;;;;66.93;34.93;;;3.70;99.90;;;;;;5043013;28;20221;-73
2022/11/21 13:33:48;;;;;;;63.30;31.87;;;3.70;99.90;;;;;;5042958;28;20262;-71
2022/11/21 13:36:41;;;;;;;62.80;33.37;;;3.80;99.90;;;;;;5041305;28;20219;-72
2022/11/21 13:39:31;;;;;;;65.77;33.37;;;3.80;99.90;;;;;;5045951;28;20654;-72
2022/11/21 13:45:42;;;;;;;64.00;34.87;;;3.60;99.90;;;;;;5041298;28;20592;-73
2022/11/21 13:49:07;;;;;;;65.63;34.07;;;3.60;99.90;;;;;;5039817;28;20731;-74
2022/11/21 13:51:56;;;;;;;65.37;33.83;;;3.70;99.90;;;;;;5043955;28;20228;-75
2022/11/21 13:55:30;;;;;;;65.80;34.33;;;3.60;99.90;;;;;;5043637;28;20223;-76
2022/11/21 13:58:34;;;;;;;67.70;33.57;;;3.60;99.90;;;;;;5043365;28;20928;-75
2022/11/21 14:01:44;;;;;;;63.83;32.60;;;3.60;99.90;;;;;;5041438;28;20662;-73
2022/11/21 14:04:57;;;;;;;65.43;33.03;;;3.70;99.90;;;;;;5060127;28;20230;-74
2022/11/21 14:07:46;;;;;;;66.30;32.63;;;3.50;99.90;;;;;;5057640;28;20239;-74
2022/11/21 14:10:35;;;;;;;64.97;33.40;;;3.40;99.90;;;;;;5044031;28;20227;-75
2022/11/21 14:13:29;;;;;;;59.90;31.40;;;3.50;99.90;;;;;;5062167;28;20226;-74
2022/11/21 14:16:28;;;;;;;64.63;32.73;;;3.50;99.90;;;;;;5041098;28;20859;-74
2022/11/21 14:19:19;;;;;;;62.63;31.50;;;3.50;99.90;;;;;;5046738;28;20237;-74
2022/11/21 14:22:16;;;;;;;63.83;33.73;;;3.80;99.90;;;;;;5043977;28;21205;-74
2022/11/21 14:25:09;;;;;;;66.97;34.60;;;3.60;99.90;;;;;;5056233;28;21281;-73
2022/11/21 14:27:58;;;;;;;68.27;33.90;;;3.50;99.90;;;;;;5061796;28;20682;-75
2022/11/21 14:30:47;;;;;;;70.60;33.97;;;3.50;99.90;;;;;;5062180;28;20369;-75
2022/11/21 14:33:37;;;;;;;72.03;35.03;;;3.60;99.90;;;;;;5048489;28;20238;-76
2022/11/21 14:36:28;;;;;;;69.60;34.73;;;3.50;99.90;;;;;;5045767;28;20245;-74
2022/11/21 14:39:19;;;;;;;71.93;36.47;;;3.50;99.90;;;;;;5062438;28;20219;-75
2022/11/21 14:42:35;;;;;;;69.77;34.67;;;3.50;99.90;;;;;;5047879;28;20240;-75
2022/11/21 14:45:24;;;;;;;77.17;39.40;;;3.50;99.90;;;;;;5046810;28;20223;-74
2022/11/21 14:48:13;;;;;;;82.10;41.00;;;3.40;99.90;;;;;;5067685;28;20391;-74
2022/11/21 14:51:01;;;;;;;84.03;40.83;;;3.10;99.90;;;;;;5064498;28;20312;-75
2022/11/21 14:53:52;;;;;;;97.53;42.90;;;3.00;99.90;;;;;;5046838;28;21127;-74
2022/11/21 14:56:42;;;;;;;92.30;45.00;;;3.10;99.90;;;;;;5050351;28;20274;-73
2022/11/21 14:59:33;;;;;;;96.63;44.60;;;2.90;99.90;;;;;;5052029;28;20234;-78
2022/11/21 15:02:24;;;;;;;93.97;47.17;;;2.80;99.90;;;;;;5048071;28;20230;-75
2022/11/21 15:05:15;;;;;;;89.17;45.00;;;2.90;99.90;;;;;;5045568;28;20847;-75
2022/11/21 15:08:24;;;;;;;97.17;46.43;;;3.00;99.90;;;;;;5062891;28;20325;-76
2022/11/21 15:11:37;;;;;;;101.53;46.57;;;3.10;99.90;;;;;;5044403;28;20986;-74
2022/11/21 15:14:32;;;;;;;94.50;46.33;;;3.00;99.90;;;;;;5047007;28;20256;-75